Wetterdaten: Woche 27.01.20 - 02.02.20 (KW5)
Datum Zeit Temp. A. Feuchte A. Luftdruck Regen Wind Richtung Taupunkt Windchill Windben
27.01.2020 00:00 -1,3 C 82 % 1021,2 hPa 0,0 l/m 0,0 km/h N -4,0 C -1,3 C 0,0 km/h
27.01.2020 01:00 -1,3 C 82 % 1020,8 hPa 0,0 l/m 0,0 km/h N -4,0 C -1,3 C 0,0 km/h
27.01.2020 02:00 -1,3 C 82 % 1019,9 hPa 0,0 l/m 0,0 km/h N -4,0 C -1,3 C 0,0 km/h
27.01.2020 03:00 -1,3 C 82 % 1020,3 hPa 0,0 l/m 0,0 km/h N -4,0 C -1,3 C 0,0 km/h
27.01.2020 04:00 -1,2 C 82 % 1020,0 hPa 0,0 l/m 0,0 km/h N -3,9 C -1,2 C 0,0 km/h
27.01.2020 06:00 -1,1 C 82 % 1019,7 hPa 0,0 l/m 0,0 km/h N -3,8 C -1,1 C 0,0 km/h
27.01.2020 07:00 -1,1 C 82 % 1018,9 hPa 0,0 l/m 0,0 km/h N -3,8 C -1,1 C 0,0 km/h
27.01.2020 08:00 -1,1 C 82 % 1019,2 hPa 0,0 l/m 0,0 km/h N -3,8 C -1,1 C 0,0 km/h
27.01.2020 09:00 -1,1 C 82 % 1019,1 hPa 0,0 l/m 0,0 km/h N -3,8 C -1,1 C 0,0 km/h
27.01.2020 10:00 -1,1 C 82 % 1018,3 hPa 0,0 l/m 0,0 km/h N -3,8 C -1,1 C 0,0 km/h
27.01.2020 11:00 -1,1 C 82 % 1018,8 hPa 0,0 l/m 0,0 km/h N -3,8 C -1,1 C 0,0 km/h
27.01.2020 12:00 -1,1 C 82 % 1018,8 hPa 0,0 l/m 0,0 km/h N -3,8 C -1,1 C 0,0 km/h
27.01.2020 13:00 -1,1 C 82 % 1018,2 hPa 0,0 l/m 0,0 km/h N -3,8 C -1,1 C 0,0 km/h
27.01.2020 14:00 -1,1 C 82 % 1016,9 hPa 0,0 l/m 0,0 km/h N -3,8 C -1,1 C 0,0 km/h
27.01.2020 15:00 -1,1 C 82 % 1016,6 hPa 0,0 l/m 0,0 km/h N -3,8 C -1,1 C 0,0 km/h
27.01.2020 16:00 -1,1 C 82 % 1016,8 hPa 0,0 l/m 0,0 km/h N -3,8 C -1,1 C 0,0 km/h
27.01.2020 17:00 -1,1 C 82 % 1016,4 hPa 0,0 l/m 0,0 km/h N -3,8 C -1,1 C 0,0 km/h
27.01.2020 18:00 -1,1 C 82 % 1015,5 hPa 0,0 l/m 0,0 km/h N -3,8 C -1,1 C 0,0 km/h
27.01.2020 19:00 -1,1 C 82 % 1014,0 hPa 0,0 l/m 0,0 km/h N -3,8 C -1,1 C 0,0 km/h
27.01.2020 20:00 -1,1 C 82 % 1013,2 hPa 0,0 l/m 0,0 km/h N -3,8 C -1,1 C 0,0 km/h
27.01.2020 21:00 -1,1 C 82 % 1012,3 hPa 0,0 l/m 0,0 km/h N -3,8 C -1,1 C 0,0 km/h
27.01.2020 22:00 -1,1 C 82 % 1011,3 hPa 0,0 l/m 0,0 km/h N -3,8 C -1,1 C 0,0 km/h
27.01.2020 23:00 -1,1 C 82 % 1010,3 hPa 0,0 l/m 0,0 km/h N -3,8 C -1,1 C 0,0 km/h
28.01.2020 00:00 -1,1 C 82 % 1009,1 hPa 0,0 l/m 0,0 km/h N -3,8 C -1,1 C 0,0 km/h
28.01.2020 01:00 -0,7 C 83 % 1008,5 hPa 0,0 l/m 0,0 km/h N -3,2 C -0,7 C 0,0 km/h
28.01.2020 02:00 -0,4 C 83 % 1008,3 hPa 0,0 l/m 0,0 km/h N -2,9 C -0,4 C 0,0 km/h
28.01.2020 03:00 -0,2 C 83 % 1007,4 hPa 0,0 l/m 0,0 km/h N -2,7 C -0,2 C 0,0 km/h
28.01.2020 04:00 -0,1 C 83 % 1007,7 hPa 0,0 l/m 0,0 km/h N -2,6 C -0,1 C 0,0 km/h
28.01.2020 05:00 -0,1 C 83 % 1005,6 hPa 0,0 l/m 0,0 km/h N -2,6 C -0,1 C 0,0 km/h
28.01.2020 06:00 -0,1 C 83 % 1005,1 hPa 0,0 l/m 0,0 km/h N -2,6 C -0,1 C 0,0 km/h
28.01.2020 07:00 -0,1 C 83 % 1004,8 hPa 0,0 l/m 0,0 km/h N -2,6 C -0,1 C 0,0 km/h
28.01.2020 08:00 -0,1 C 83 % 1005,2 hPa 0,0 l/m 0,0 km/h N -2,6 C -0,1 C 0,0 km/h
28.01.2020 09:00 -0,1 C 83 % 1004,9 hPa 0,0 l/m 0,0 km/h N -2,6 C -0,1 C 0,0 km/h
28.01.2020 10:00 -0,1 C 83 % 1004,4 hPa 0,0 l/m 0,0 km/h N -2,6 C -0,1 C 0,0 km/h
28.01.2020 11:00 -0,1 C 83 % 1003,6 hPa 0,0 l/m 0,0 km/h N -2,6 C -0,1 C 0,0 km/h
28.01.2020 12:00 0,4 C 84 % 1003,7 hPa 0,0 l/m 0,0 km/h N -2,0 C 0,4 C 0,0 km/h
28.01.2020 13:00 1,0 C 84 % 1003,8 hPa 0,0 l/m 0,0 km/h N -1,4 C 1,0 C 0,0 km/h
28.01.2020 14:00 1,4 C 84 % 1003,2 hPa 0,0 l/m 0,0 km/h N -1,0 C 1,4 C 0,4 km/h
28.01.2020 15:00 1,4 C 84 % 1004,3 hPa 1,6 l/m 0,1 km/h N -1,0 C 1,4 C 0,8 km/h
28.01.2020 16:00 1,7 C 84 % 1003,0 hPa 1,6 l/m 0,0 km/h N -0,7 C 1,7 C 0,0 km/h
28.01.2020 17:00 2,4 C 84 % 1002,3 hPa 0,0 l/m 0,0 km/h N -0,0 C 2,4 C 0,0 km/h
28.01.2020 18:00 1,9 C 84 % 1002,0 hPa 0,0 l/m 0,0 km/h N -0,5 C 1,9 C 0,0 km/h
28.01.2020 19:00 1,7 C 84 % 1002,1 hPa 0,0 l/m 3,6 km/h N -0,7 C 1,7 C 3,6 km/h
28.01.2020 20:00 1,7 C 84 % 1002,0 hPa 0,0 l/m 4,8 km/h N -0,7 C 1,7 C 4,8 km/h
28.01.2020 21:00 1,7 C 84 % 1002,6 hPa 0,0 l/m 4,8 km/h N -0,7 C 1,7 C 4,8 km/h
28.01.2020 22:00 1,7 C 84 % 1003,1 hPa 0,0 l/m 4,8 km/h N -0,7 C 1,7 C 4,8 km/h
28.01.2020 23:00 1,7 C 84 % 1003,3 hPa 0,0 l/m 4,8 km/h N -0,7 C 1,7 C 4,8 km/h
29.01.2020 00:00 1,7 C 84 % 1004,2 hPa 0,0 l/m 4,8 km/h N -0,7 C 1,7 C 4,8 km/h
29.01.2020 01:00 1,7 C 84 % 1005,0 hPa 0,0 l/m 4,8 km/h N -0,7 C 1,7 C 4,8 km/h
29.01.2020 02:00 1,7 C 84 % 1004,5 hPa 0,0 l/m 4,8 km/h N -0,7 C 1,7 C 4,8 km/h
29.01.2020 03:00 1,7 C 84 % 1005,4 hPa 0,0 l/m 4,8 km/h N -0,7 C 1,7 C 4,8 km/h
29.01.2020 04:00 1,7 C 84 % 1004,7 hPa 0,0 l/m 4,8 km/h N -0,7 C 1,7 C 4,8 km/h
29.01.2020 05:00 1,7 C 84 % 1004,3 hPa 0,0 l/m 4,8 km/h N -0,7 C 1,7 C 4,8 km/h
29.01.2020 06:00 1,7 C 84 % 1004,6 hPa 0,0 l/m 4,8 km/h N -0,7 C 1,7 C 4,8 km/h
29.01.2020 07:00 1,7 C 84 % 1005,2 hPa 0,0 l/m 4,8 km/h N -0,7 C 1,7 C 4,8 km/h
29.01.2020 08:00 1,7 C 84 % 1006,3 hPa 0,0 l/m 4,8 km/h N -0,7 C 1,7 C 4,8 km/h
29.01.2020 09:00 1,7 C 84 % 1006,5 hPa 0,0 l/m 4,8 km/h N -0,7 C 1,7 C 4,8 km/h
29.01.2020 10:00 1,7 C 84 % 1006,6 hPa 0,0 l/m 4,8 km/h N -0,7 C 1,7 C 4,8 km/h
29.01.2020 11:00 1,7 C 84 % 1006,8 hPa 0,0 l/m 4,8 km/h N -0,7 C 1,7 C 4,8 km/h
29.01.2020 12:00 1,7 C 84 % 1006,6 hPa 0,0 l/m 4,8 km/h N -0,7 C 1,7 C 4,8 km/h
29.01.2020 13:00 1,7 C 84 % 1006,6 hPa 0,0 l/m 4,8 km/h N -0,7 C 1,7 C 4,8 km/h
29.01.2020 14:00 1,7 C 84 % 1006,9 hPa 0,0 l/m 4,8 km/h N -0,7 C 1,7 C 4,8 km/h
29.01.2020 15:00 1,7 C 84 % 1007,2 hPa 0,0 l/m 4,8 km/h N -0,7 C 1,7 C 4,8 km/h
29.01.2020 16:00 1,7 C 84 % 1007,9 hPa 0,0 l/m 4,8 km/h N -0,7 C 1,7 C 4,8 km/h
29.01.2020 17:00 1,7 C 84 % 1008,8 hPa 0,0 l/m 4,8 km/h N -0,7 C 1,7 C 4,8 km/h
29.01.2020 18:00 1,7 C 84 % 1009,3 hPa 0,0 l/m 4,8 km/h N -0,7 C 1,7 C 4,8 km/h
29.01.2020 19:00 1,7 C 84 % 1009,6 hPa 0,0 l/m 4,8 km/h N -0,7 C 1,7 C 4,8 km/h
29.01.2020 20:00 1,7 C 84 % 1010,4 hPa 0,0 l/m 4,8 km/h N -0,7 C 1,7 C 4,8 km/h
29.01.2020 21:00 1,7 C 84 % 1011,0 hPa 0,0 l/m 4,8 km/h N -0,7 C 1,7 C 4,8 km/h
29.01.2020 22:00 1,7 C 84 % 1012,0 hPa 0,0 l/m 4,8 km/h N -0,7 C 1,7 C 4,8 km/h
29.01.2020 23:00 1,7 C 84 % 1012,4 hPa 0,0 l/m 4,8 km/h N -0,7 C 1,7 C 4,8 km/h
30.01.2020 00:00 1,7 C 84 % 1012,8 hPa 0,0 l/m 4,8 km/h N -0,7 C 1,7 C 4,8 km/h
30.01.2020 01:00 1,7 C 84 % 1013,4 hPa 0,0 l/m 4,8 km/h N -0,7 C 1,7 C 4,8 km/h
30.01.2020 02:00 1,7 C 84 % 1014,2 hPa 0,0 l/m 4,8 km/h N -0,7 C 1,7 C 4,8 km/h
30.01.2020 03:00 1,7 C 84 % 1015,1 hPa 0,0 l/m 4,8 km/h N -0,7 C 1,7 C 4,8 km/h
30.01.2020 04:00 1,7 C 84 % 1015,8 hPa 0,0 l/m 4,8 km/h N -0,7 C 1,7 C 4,8 km/h
30.01.2020 05:00 1,7 C 84 % 1016,2 hPa 0,0 l/m 4,8 km/h N -0,7 C 1,7 C 4,8 km/h
30.01.2020 06:00 1,7 C 84 % 1016,2 hPa 0,0 l/m 4,8 km/h N -0,7 C 1,7 C 4,8 km/h
30.01.2020 07:00 1,7 C 84 % 1016,5 hPa 0,0 l/m 4,8 km/h N -0,7 C 1,7 C 4,8 km/h
30.01.2020 08:00 1,7 C 84 % 1016,5 hPa 0,0 l/m 4,8 km/h N -0,7 C 1,7 C 4,8 km/h
30.01.2020 09:00 1,7 C 84 % 1016,1 hPa 0,0 l/m 4,8 km/h N -0,7 C 1,7 C 4,8 km/h
30.01.2020 10:00 1,7 C 84 % 1016,2 hPa 0,0 l/m 4,8 km/h N -0,7 C 1,7 C 4,8 km/h
30.01.2020 11:00 1,7 C 84 % 1016,1 hPa 0,0 l/m 4,8 km/h N -0,7 C 1,7 C 4,8 km/h
30.01.2020 12:00 1,7 C 84 % 1015,3 hPa 0,0 l/m 4,8 km/h N -0,7 C 1,7 C 4,8 km/h
30.01.2020 13:00 1,7 C 84 % 1014,8 hPa 0,0 l/m 4,8 km/h N -0,7 C 1,7 C 4,8 km/h
30.01.2020 14:00 1,7 C 84 % 1014,2 hPa 0,0 l/m 4,8 km/h N -0,7 C 1,7 C 4,8 km/h
30.01.2020 15:00 1,7 C 84 % 1013,5 hPa 0,0 l/m 4,8 km/h N -0,7 C 1,7 C 4,8 km/h
30.01.2020 16:00 1,7 C 84 % 1013,2 hPa 0,0 l/m 4,8 km/h N -0,7 C 1,7 C 4,8 km/h
30.01.2020 17:00 1,7 C 84 % 1013,0 hPa 0,0 l/m 4,8 km/h N -0,7 C 1,7 C 4,8 km/h
30.01.2020 18:00 1,7 C 84 % 1012,6 hPa 0,0 l/m 4,8 km/h N -0,7 C 1,7 C 4,8 km/h
30.01.2020 19:00 1,7 C 84 % 1012,1 hPa 0,0 l/m 4,8 km/h N -0,7 C 1,7 C 4,8 km/h
30.01.2020 20:00 1,7 C 84 % 1011,8 hPa 0,0 l/m 4,8 km/h N -0,7 C 1,7 C 4,8 km/h
30.01.2020 21:00 1,7 C 84 % 1011,4 hPa 0,0 l/m 4,8 km/h N -0,7 C 1,7 C 4,8 km/h
30.01.2020 22:00 1,7 C 84 % 1010,7 hPa 0,0 l/m 4,8 km/h N -0,7 C 1,7 C 4,8 km/h
30.01.2020 23:00 1,7 C 84 % 1010,2 hPa 0,0 l/m 4,8 km/h N -0,7 C 1,7 C 4,8 km/h
31.01.2020 00:00 1,7 C 84 % 1009,9 hPa 0,0 l/m 4,8 km/h N -0,7 C 1,7 C 4,8 km/h
31.01.2020 01:00 1,7 C 84 % 1009,5 hPa 0,0 l/m 4,8 km/h N -0,7 C 1,7 C 4,8 km/h
31.01.2020 02:00 1,7 C 84 % 1009,0 hPa 0,0 l/m 4,8 km/h N -0,7 C 1,7 C 4,8 km/h
31.01.2020 03:00 1,7 C 84 % 1008,0 hPa 0,0 l/m 4,8 km/h N -0,7 C 1,7 C 4,8 km/h
31.01.2020 04:00 1,7 C 84 % 1007,1 hPa 0,0 l/m 4,8 km/h N -0,7 C 1,7 C 4,8 km/h
31.01.2020 05:00 1,7 C 84 % 1006,4 hPa 0,0 l/m 4,8 km/h N -0,7 C 1,7 C 4,8 km/h
31.01.2020 06:00 1,7 C 84 % 1006,3 hPa 0,0 l/m 4,8 km/h N -0,7 C 1,7 C 4,8 km/h
31.01.2020 07:00 0,0 C 0 % 1005,9 hPa 0,0 l/m 0,0 km/h N -60,0 C 0,0 C 0,0 km/h
31.01.2020 08:00 0,0 C 0 % 1006,9 hPa 0,0 l/m 0,0 km/h N -60,0 C 0,0 C 0,0 km/h
31.01.2020 09:00 0,0 C 0 % 1007,7 hPa 0,0 l/m 0,0 km/h N -60,0 C 0,0 C 0,0 km/h
31.01.2020 10:00 0,0 C 0 % 1007,5 hPa 0,0 l/m 0,0 km/h N -60,0 C 0,0 C 0,0 km/h
31.01.2020 11:00 0,0 C 0 % 1008,0 hPa 0,0 l/m 0,0 km/h N -60,0 C 0,0 C 0,0 km/h
31.01.2020 12:00 0,0 C 0 % 1008,4 hPa 0,0 l/m 0,0 km/h N -60,0 C 0,0 C 0,0 km/h
31.01.2020 13:00 0,0 C 0 % 1008,5 hPa 0,0 l/m 0,0 km/h N -60,0 C 0,0 C 0,0 km/h
31.01.2020 14:00 0,0 C 0 % 1008,8 hPa 0,0 l/m 0,0 km/h N -60,0 C 0,0 C 0,0 km/h
31.01.2020 15:00 0,0 C 0 % 1009,4 hPa 0,0 l/m 0,0 km/h N -60,0 C 0,0 C 0,0 km/h
31.01.2020 16:00 0,0 C 0 % 1010,0 hPa 0,0 l/m 0,0 km/h N -60,0 C 0,0 C 0,0 km/h
31.01.2020 17:00 0,0 C 0 % 1010,7 hPa 0,0 l/m 0,0 km/h N -60,0 C 0,0 C 0,0 km/h
31.01.2020 18:00 0,0 C 0 % 1010,9 hPa 0,0 l/m 0,0 km/h N -60,0 C 0,0 C 0,0 km/h
31.01.2020 19:00 0,0 C 0 % 1010,9 hPa 0,0 l/m 0,0 km/h N -60,0 C 0,0 C 0,0 km/h
31.01.2020 20:00 0,0 C 0 % 1011,0 hPa 0,0 l/m 0,0 km/h N -60,0 C 0,0 C 0,0 km/h
31.01.2020 21:00 0,0 C 0 % 1010,9 hPa 0,0 l/m 0,0 km/h N -60,0 C 0,0 C 0,0 km/h
31.01.2020 22:00 0,0 C 0 % 1011,3 hPa 0,0 l/m 0,0 km/h N -60,0 C 0,0 C 0,0 km/h
31.01.2020 23:00 0,0 C 0 % 1011,6 hPa 0,0 l/m 0,0 km/h N -60,0 C 0,0 C 0,0 km/h
01.02.2020 00:00 0,0 C 0 % 1011,4 hPa 0,0 l/m 0,0 km/h N -60,0 C 0,0 C 0,0 km/h
01.02.2020 01:00 0,0 C 0 % 1010,7 hPa 0,0 l/m 0,0 km/h N -60,0 C 0,0 C 0,0 km/h
01.02.2020 02:00 0,0 C 0 % 1011,3 hPa 0,0 l/m 0,0 km/h N -60,0 C 0,0 C 0,0 km/h
01.02.2020 03:00 0,0 C 0 % 1011,6 hPa 0,0 l/m 0,0 km/h N -60,0 C 0,0 C 0,0 km/h
01.02.2020 04:00 0,0 C 0 % 1011,5 hPa 0,0 l/m 0,0 km/h N -60,0 C 0,0 C 0,0 km/h
01.02.2020 05:00 0,0 C 0 % 1011,2 hPa 0,0 l/m 0,0 km/h N -60,0 C 0,0 C 0,0 km/h
01.02.2020 06:00 0,0 C 0 % 1011,1 hPa 0,0 l/m 0,0 km/h N -60,0 C 0,0 C 0,0 km/h
01.02.2020 07:00 0,0 C 0 % 1011,5 hPa 0,0 l/m 0,0 km/h N -60,0 C 0,0 C 0,0 km/h
01.02.2020 08:00 0,0 C 0 % 1011,5 hPa 0,0 l/m 0,0 km/h N -60,0 C 0,0 C 0,0 km/h
01.02.2020 09:00 0,0 C 0 % 1011,0 hPa 0,0 l/m 0,0 km/h N -60,0 C 0,0 C 0,0 km/h
01.02.2020 10:00 0,0 C 0 % 1010,6 hPa 0,0 l/m 0,0 km/h N -60,0 C 0,0 C 0,0 km/h
01.02.2020 11:00 0,0 C 0 % 1009,8 hPa 0,0 l/m 0,0 km/h N -60,0 C 0,0 C 0,0 km/h
01.02.2020 12:00 0,0 C 0 % 1009,2 hPa 0,0 l/m 0,0 km/h N -60,0 C 0,0 C 0,0 km/h
01.02.2020 13:00 0,0 C 0 % 1008,5 hPa 0,0 l/m 0,0 km/h N -60,0 C 0,0 C 0,0 km/h
01.02.2020 14:00 0,0 C 0 % 1008,1 hPa 0,0 l/m 0,0 km/h N -60,0 C 0,0 C 0,0 km/h
01.02.2020 15:00 0,0 C 0 % 1007,9 hPa 0,0 l/m 0,0 km/h N -60,0 C 0,0 C 0,0 km/h
01.02.2020 16:00 0,0 C 0 % 1007,5 hPa 0,0 l/m 0,0 km/h N -60,0 C 0,0 C 0,0 km/h
01.02.2020 17:00 0,0 C 0 % 1007,1 hPa 0,0 l/m 0,0 km/h N -60,0 C 0,0 C 0,0 km/h
01.02.2020 18:00 0,0 C 0 % 1007,4 hPa 0,0 l/m 0,0 km/h N -60,0 C 0,0 C 0,0 km/h
01.02.2020 19:00 0,0 C 0 % 1007,3 hPa 0,0 l/m 0,0 km/h N -60,0 C 0,0 C 0,0 km/h
01.02.2020 20:00 0,0 C 0 % 1007,3 hPa 0,0 l/m 0,0 km/h N -60,0 C 0,0 C 0,0 km/h
01.02.2020 21:00 0,0 C 0 % 1007,3 hPa 0,0 l/m 0,0 km/h N -60,0 C 0,0 C 0,0 km/h
01.02.2020 22:00 0,0 C 0 % 1007,9 hPa 0,0 l/m 0,0 km/h N -60,0 C 0,0 C 0,0 km/h
01.02.2020 23:00 0,0 C 0 % 1008,3 hPa 0,0 l/m 0,0 km/h N -60,0 C 0,0 C 0,0 km/h
02.02.2020 00:00 0,0 C 0 % 1008,8 hPa 0,0 l/m 0,0 km/h N -60,0 C 0,0 C 0,0 km/h
02.02.2020 01:00 0,0 C 0 % 1009,3 hPa 0,0 l/m 0,0 km/h N -60,0 C 0,0 C 0,0 km/h
02.02.2020 02:00 0,0 C 0 % 1009,1 hPa 0,0 l/m 0,0 km/h N -60,0 C 0,0 C 0,0 km/h
02.02.2020 03:00 0,0 C 0 % 1009,6 hPa 0,0 l/m 0,0 km/h N -60,0 C 0,0 C 0,0 km/h
02.02.2020 04:00 0,0 C 0 % 1011,7 hPa 0,0 l/m 0,0 km/h N -60,0 C 0,0 C 0,0 km/h
02.02.2020 05:00 0,0 C 0 % 1012,3 hPa 0,0 l/m 0,0 km/h N -60,0 C 0,0 C 0,0 km/h
02.02.2020 06:00 0,0 C 0 % 1012,7 hPa 0,0 l/m 0,0 km/h N -60,0 C 0,0 C 0,0 km/h
02.02.2020 07:00 0,0 C 0 % 1013,1 hPa 0,0 l/m 0,0 km/h N -60,0 C 0,0 C 0,0 km/h
Min-Datum _ 27.01.20 31.01.20 28.01.20 - 27.01.20 - 31.01.20 27.01.20 27.01.20
_ Min-Zeit 00:30 07:00 18:45 - 00:00 - 07:00 00:00 00:00
Minimum _ -1,3 C 0 % 1001,5 hPa - 0,0 km/h - -60,0 C -1,3 C 0,0 km/h
Max-Datum _ 28.01.20 28.01.20 27.01.20 28.01.20 28.01.20 - 28.01.20 28.01.20 28.01.20
_ Max-Zeit 16:45 12:30 00:00 15:45 19:15 - 16:45 16:45 19:15
Maximum _ 2,4 C 84 % 1021,3 hPa 1,6 l/m 4,8 km/h
N
- -0,0 C 2,4 C 4,8 km/h
N
Durchschnitt _ 0,5 C 56 % 1010,2 hPa #3,1 l/m 1,9 km/h N -20,6 C 0,5 C 1,9 km/h